createdAt,value
2022-12-24T00:01:33.172Z,11.40
2022-12-24T00:03:59.618Z,11.30
2022-12-24T00:06:26.120Z,11.30
2022-12-24T00:08:52.595Z,11.30
2022-12-24T00:11:20.670Z,11.40
2022-12-24T00:13:47.361Z,11.40
2022-12-24T00:16:13.971Z,11.50
2022-12-24T00:18:45.912Z,11.50
2022-12-24T00:21:13.862Z,11.60
2022-12-24T00:23:40.905Z,11.50
2022-12-24T00:26:07.362Z,11.50
2022-12-24T00:28:33.938Z,11.50
2022-12-24T00:31:00.597Z,11.60
2022-12-24T00:33:27.254Z,11.60
2022-12-24T00:35:53.878Z,11.50
2022-12-24T00:38:20.586Z,11.40
2022-12-24T00:40:47.106Z,11.50
2022-12-24T00:43:13.723Z,11.50
2022-12-24T00:45:40.367Z,11.40
2022-12-24T00:48:06.863Z,11.40
2022-12-24T00:50:33.429Z,11.40
2022-12-24T00:52:59.971Z,11.50
2022-12-24T00:55:26.473Z,11.50
2022-12-24T00:57:52.958Z,11.40
2022-12-24T01:00:19.718Z,11.40
2022-12-24T01:02:46.517Z,11.30
2022-12-24T01:05:13.284Z,11.20
2022-12-24T01:07:41.688Z,11.20
2022-12-24T01:10:08.351Z,11.30
2022-12-24T01:12:34.991Z,11.30
2022-12-24T01:15:01.494Z,11.30
2022-12-24T01:17:27.982Z,11.20
2022-12-24T01:19:54.513Z,11.20
2022-12-24T01:22:20.993Z,11.30
2022-12-24T01:24:47.615Z,11.40
2022-12-24T01:27:14.100Z,11.30
2022-12-24T01:29:41.399Z,11.30
2022-12-24T01:32:07.900Z,11.20
2022-12-24T01:34:34.436Z,11.30
2022-12-24T01:37:00.983Z,11.30
2022-12-24T01:39:27.510Z,11.30
2022-12-24T01:42:12.619Z,11.30
2022-12-24T01:44:41.040Z,11.20
2022-12-24T01:47:27.479Z,11.30
2022-12-24T01:50:00.009Z,11.30
2022-12-24T01:52:28.319Z,11.30
2022-12-24T01:54:56.397Z,11.20
2022-12-24T01:57:26.051Z,11.10
2022-12-24T01:59:55.467Z,11.10
2022-12-24T02:02:22.343Z,11.00
2022-12-24T02:05:06.249Z,11.00
2022-12-24T02:07:32.993Z,10.90
2022-12-24T02:10:01.222Z,11.00
2022-12-24T02:12:29.051Z,10.90
2022-12-24T02:14:55.886Z,10.90
2022-12-24T02:17:41.177Z,10.80
2022-12-24T02:20:23.082Z,10.80
2022-12-24T02:22:58.588Z,10.90
2022-12-24T02:25:32.847Z,11.00
2022-12-24T02:28:01.823Z,11.00
2022-12-24T02:30:32.355Z,11.00
2022-12-24T02:33:10.997Z,11.00
2022-12-24T02:35:52.773Z,10.90
2022-12-24T02:38:22.226Z,11.00
2022-12-24T02:40:52.036Z,11.00
2022-12-24T02:43:22.211Z,11.00
2022-12-24T02:45:58.553Z,10.90
2022-12-24T02:48:26.270Z,10.90
2022-12-24T02:51:02.637Z,10.90
2022-12-24T02:53:29.230Z,10.90
2022-12-24T02:56:01.816Z,11.00
2022-12-24T02:58:31.493Z,11.00
2022-12-24T03:01:17.097Z,10.90
2022-12-24T03:03:43.910Z,11.00
2022-12-24T03:06:10.571Z,10.90
2022-12-24T03:08:47.202Z,10.90
2022-12-24T03:11:15.179Z,11.00
2022-12-24T03:13:42.906Z,11.00
2022-12-24T03:16:19.315Z,11.00
2022-12-24T03:18:47.607Z,11.00
2022-12-24T03:21:17.824Z,10.90
2022-12-24T03:23:44.330Z,11.00
2022-12-24T03:26:12.239Z,10.90
2022-12-24T03:28:39.778Z,11.00
2022-12-24T03:31:06.820Z,11.00
2022-12-24T03:33:33.311Z,11.00
2022-12-24T03:36:00.157Z,10.90
2022-12-24T03:38:27.007Z,11.00
2022-12-24T03:40:53.494Z,11.00
2022-12-24T03:43:19.964Z,11.00
2022-12-24T03:45:46.471Z,10.90
2022-12-24T03:48:13.062Z,11.00
2022-12-24T03:50:39.599Z,11.00
2022-12-24T03:53:06.049Z,10.90
2022-12-24T03:55:32.546Z,10.90
2022-12-24T03:57:59.151Z,10.90
2022-12-24T04:00:25.611Z,11.00
2022-12-24T04:02:53.179Z,11.00
2022-12-24T04:05:20.075Z,11.00
2022-12-24T04:07:46.776Z,11.10
2022-12-24T04:10:14.070Z,11.00
2022-12-24T04:12:40.553Z,11.00
2022-12-24T04:15:07.584Z,11.00
2022-12-24T04:17:34.218Z,11.00
2022-12-24T04:20:00.703Z,10.90
2022-12-24T04:22:27.310Z,10.90
2022-12-24T04:24:53.796Z,10.90
2022-12-24T04:27:22.925Z,10.80
2022-12-24T04:29:51.780Z,10.80
2022-12-24T04:32:18.345Z,10.80
2022-12-24T04:34:44.859Z,10.80
2022-12-24T04:37:11.367Z,10.80
2022-12-24T04:39:37.980Z,10.70
2022-12-24T04:42:04.556Z,10.70
2022-12-24T04:44:31.009Z,10.70
2022-12-24T04:46:57.449Z,10.70
2022-12-24T04:49:23.948Z,10.70
2022-12-24T04:51:50.431Z,10.70
2022-12-24T04:54:16.880Z,10.70
2022-12-24T04:56:43.404Z,10.70
2022-12-24T04:59:09.913Z,10.70
2022-12-24T05:01:36.547Z,10.70
2022-12-24T05:04:03.087Z,10.70
2022-12-24T05:06:30.611Z,10.70
2022-12-24T05:08:58.043Z,10.70
2022-12-24T05:11:24.524Z,10.80
2022-12-24T05:13:52.276Z,10.80
2022-12-24T05:16:20.233Z,10.80
2022-12-24T05:18:46.829Z,10.80
2022-12-24T05:21:14.262Z,10.80
2022-12-24T05:23:59.199Z,10.80
2022-12-24T05:26:30.771Z,10.80
2022-12-24T05:28:58.958Z,10.80
2022-12-24T05:31:26.612Z,10.80
2022-12-24T05:33:54.630Z,10.70
2022-12-24T05:36:22.007Z,10.70
2022-12-24T05:38:48.634Z,10.60
2022-12-24T05:41:15.221Z,10.60
2022-12-24T05:43:41.764Z,10.60
2022-12-24T05:46:11.216Z,10.50
2022-12-24T05:48:37.757Z,10.40
2022-12-24T05:51:05.983Z,10.40
2022-12-24T05:53:32.627Z,10.40
2022-12-24T05:56:06.554Z,10.40
2022-12-24T05:58:33.475Z,10.40
2022-12-24T06:01:00.873Z,10.40
2022-12-24T06:03:27.326Z,10.30
2022-12-24T06:06:04.792Z,10.30
2022-12-24T06:08:32.156Z,10.30
2022-12-24T06:10:59.879Z,10.30
2022-12-24T06:13:26.662Z,10.40
2022-12-24T06:15:57.280Z,10.40
2022-12-24T06:18:24.102Z,10.40
2022-12-24T06:20:51.947Z,10.40
2022-12-24T06:23:18.903Z,10.40
2022-12-24T06:25:45.826Z,10.40
2022-12-24T06:28:12.277Z,10.50
2022-12-24T06:30:38.831Z,10.50
2022-12-24T06:33:05.418Z,10.60
2022-12-24T06:35:33.093Z,10.60
2022-12-24T06:37:59.752Z,10.60
2022-12-24T06:40:27.121Z,10.50
2022-12-24T06:42:53.596Z,10.50
2022-12-24T06:45:20.172Z,10.50
2022-12-24T06:47:47.058Z,10.60
2022-12-24T06:50:13.681Z,10.60
2022-12-24T06:52:40.271Z,10.70
2022-12-24T06:55:07.185Z,10.80
2022-12-24T06:57:33.870Z,10.80
2022-12-24T07:00:00.785Z,10.80
2022-12-24T07:02:27.608Z,10.70
2022-12-24T07:04:54.227Z,10.80
2022-12-24T07:07:20.791Z,10.80
2022-12-24T07:09:47.400Z,10.80
2022-12-24T07:12:13.946Z,10.80
2022-12-24T07:14:40.553Z,10.80
2022-12-24T07:17:07.113Z,10.80
2022-12-24T07:19:34.248Z,10.80
2022-12-24T07:22:00.796Z,10.70
2022-12-24T07:24:27.331Z,10.70
2022-12-24T07:26:53.822Z,10.70
2022-12-24T07:29:20.570Z,10.80
2022-12-24T07:31:47.160Z,10.90
2022-12-24T07:34:13.781Z,10.90
2022-12-24T07:36:40.472Z,10.90
2022-12-24T07:39:06.962Z,10.90
2022-12-24T07:41:36.352Z,10.80
2022-12-24T07:44:11.219Z,10.80
2022-12-24T07:46:37.706Z,10.80
2022-12-24T07:49:04.277Z,10.80
2022-12-24T07:51:30.760Z,10.90
2022-12-24T07:53:57.235Z,10.80
2022-12-24T07:56:23.739Z,10.90
2022-12-24T07:58:50.795Z,10.90
2022-12-24T08:01:17.776Z,10.80
2022-12-24T08:03:44.690Z,10.90
2022-12-24T08:06:11.425Z,10.80
2022-12-24T08:08:38.111Z,10.80
2022-12-24T08:11:06.011Z,10.80
2022-12-24T08:13:33.144Z,10.90
2022-12-24T08:15:59.794Z,10.80
2022-12-24T08:18:26.295Z,10.90
2022-12-24T08:20:52.773Z,10.80
2022-12-24T08:23:19.404Z,10.80
2022-12-24T08:25:47.236Z,10.90
2022-12-24T08:28:15.043Z,10.80
2022-12-24T08:30:42.190Z,10.90
2022-12-24T08:33:08.930Z,10.90
2022-12-24T08:35:35.803Z,10.90
2022-12-24T08:38:02.396Z,11.00
2022-12-24T08:40:28.899Z,11.00
2022-12-24T08:42:55.472Z,11.00
2022-12-24T08:45:22.083Z,11.10
2022-12-24T08:47:48.569Z,11.10
2022-12-24T08:50:15.150Z,11.20
2022-12-24T08:52:41.606Z,11.20
2022-12-24T08:55:08.415Z,11.20
2022-12-24T08:57:35.905Z,11.20
2022-12-24T09:00:02.773Z,11.20
2022-12-24T09:02:29.375Z,11.20
2022-12-24T09:04:55.973Z,11.10
2022-12-24T09:07:22.629Z,11.00
2022-12-24T09:09:49.179Z,10.90
2022-12-24T09:12:15.713Z,10.90
2022-12-24T09:14:42.213Z,10.80
2022-12-24T09:17:08.703Z,10.70
2022-12-24T09:19:35.250Z,10.70
2022-12-24T09:22:01.792Z,10.60
2022-12-24T09:24:28.398Z,10.50
2022-12-24T09:26:57.950Z,10.50
2022-12-24T09:29:25.089Z,10.50
2022-12-24T09:31:51.823Z,10.50
2022-12-24T09:34:18.374Z,10.50
2022-12-24T09:36:46.092Z,10.50
2022-12-24T09:39:12.786Z,10.60
2022-12-24T09:41:51.607Z,10.70
2022-12-24T09:44:33.495Z,10.70
2022-12-24T09:47:08.183Z,10.80
2022-12-24T09:49:42.155Z,10.90
2022-12-24T09:52:10.574Z,10.90
2022-12-24T09:54:38.603Z,10.80
2022-12-24T09:57:07.477Z,10.80
2022-12-24T09:59:40.864Z,10.70
2022-12-24T10:02:11.908Z,10.80
2022-12-24T10:04:38.479Z,10.70
2022-12-24T10:07:08.625Z,10.80
2022-12-24T10:09:48.108Z,10.70
2022-12-24T10:12:27.003Z,10.70
2022-12-24T10:14:56.678Z,10.70
2022-12-24T10:17:23.243Z,10.80
2022-12-24T10:19:52.819Z,10.90
2022-12-24T10:22:28.608Z,10.80
2022-12-24T10:25:02.120Z,10.80
2022-12-24T10:27:32.441Z,10.80
2022-12-24T10:30:01.637Z,10.90
2022-12-24T10:32:37.280Z,10.90
2022-12-24T10:35:08.237Z,11.00
2022-12-24T10:37:34.717Z,11.10
2022-12-24T10:40:02.426Z,11.10
2022-12-24T10:42:50.873Z,11.10
2022-12-24T10:45:20.179Z,11.20
2022-12-24T10:47:49.538Z,11.30
2022-12-24T10:50:19.443Z,11.40
2022-12-24T10:52:47.058Z,11.50
2022-12-24T10:55:19.565Z,11.50
2022-12-24T10:57:47.116Z,11.60
2022-12-24T11:00:25.109Z,11.60
2022-12-24T11:03:21.154Z,11.60
2022-12-24T11:05:58.685Z,11.60
2022-12-24T11:08:26.079Z,11.60
2022-12-24T11:10:55.623Z,11.60
2022-12-24T11:13:37.472Z,11.70
2022-12-24T11:16:05.507Z,11.80
2022-12-24T11:18:34.297Z,11.90
2022-12-24T11:21:01.315Z,12.00
2022-12-24T11:23:28.534Z,12.00
2022-12-24T11:25:56.220Z,12.10
2022-12-24T11:28:24.839Z,12.10
2022-12-24T11:30:59.112Z,12.10
2022-12-24T11:33:25.797Z,12.20
2022-12-24T11:35:54.205Z,12.20
2022-12-24T11:38:22.191Z,12.20
2022-12-24T11:40:50.860Z,12.30
2022-12-24T11:43:21.724Z,12.30
2022-12-24T11:45:50.146Z,12.30
2022-12-24T11:48:25.031Z,12.40
2022-12-24T11:51:05.129Z,12.60
2022-12-24T11:53:36.550Z,12.90
2022-12-24T11:56:06.382Z,13.20
2022-12-24T11:58:32.935Z,13.20
2022-12-24T12:01:16.039Z,13.20
2022-12-24T12:03:45.482Z,13.10
2022-12-24T12:06:21.426Z,13.10
2022-12-24T12:08:50.052Z,13.10
2022-12-24T12:11:16.651Z,13.00
2022-12-24T12:13:44.869Z,13.00
2022-12-24T12:16:26.985Z,12.90
2022-12-24T12:19:05.643Z,12.90
2022-12-24T12:21:38.449Z,12.80
2022-12-24T12:24:06.922Z,12.70
2022-12-24T12:26:35.523Z,12.60
2022-12-24T12:29:05.300Z,12.60
2022-12-24T12:31:41.210Z,12.60
2022-12-24T12:34:13.561Z,12.80
2022-12-24T12:37:00.486Z,12.90
2022-12-24T12:39:27.096Z,13.10
2022-12-24T12:42:05.193Z,13.20
2022-12-24T12:44:44.593Z,13.20
2022-12-24T12:47:46.366Z,13.20
2022-12-24T12:50:18.488Z,13.20
2022-12-24T12:52:51.149Z,13.20
2022-12-24T12:55:38.550Z,13.10
2022-12-24T12:58:12.770Z,13.00
2022-12-24T13:00:45.209Z,12.90
2022-12-24T13:03:25.321Z,13.00
2022-12-24T13:05:58.028Z,13.10
2022-12-24T13:08:38.499Z,13.30
2022-12-24T13:11:07.089Z,13.10
2022-12-24T13:13:33.928Z,13.00
2022-12-24T13:16:19.862Z,13.00
2022-12-24T13:18:46.442Z,13.20
2022-12-24T13:21:18.623Z,13.40
2022-12-24T13:23:47.189Z,13.30
2022-12-24T13:26:14.433Z,13.10
2022-12-24T13:28:43.529Z,12.80
2022-12-24T13:31:24.941Z,12.70
2022-12-24T13:33:55.999Z,12.60
2022-12-24T13:36:22.956Z,12.50
2022-12-24T13:38:52.091Z,12.50
2022-12-24T13:41:41.410Z,12.50
2022-12-24T13:44:12.971Z,12.50
2022-12-24T13:46:45.811Z,12.60
2022-12-24T13:49:17.723Z,12.80
2022-12-24T13:51:44.286Z,12.90
2022-12-24T13:54:14.620Z,12.90
2022-12-24T13:56:42.022Z,12.90
2022-12-24T13:59:38.293Z,12.90
2022-12-24T14:02:06.148Z,12.80
2022-12-24T14:04:35.954Z,12.70
2022-12-24T14:07:06.587Z,12.50
2022-12-24T14:09:33.196Z,12.40
2022-12-24T14:12:00.007Z,12.30
2022-12-24T14:14:28.307Z,12.20
2022-12-24T14:16:59.039Z,12.10
2022-12-24T14:19:37.098Z,12.10
2022-12-24T14:22:13.319Z,12.00
2022-12-24T14:24:43.716Z,12.00
2022-12-24T14:27:19.641Z,11.90
2022-12-24T14:30:02.357Z,11.90
2022-12-24T14:32:39.417Z,11.90
2022-12-24T14:35:15.632Z,11.80
2022-12-24T14:37:44.660Z,11.70
2022-12-24T14:40:22.528Z,11.60
2022-12-24T14:43:10.307Z,11.60
2022-12-24T14:45:39.578Z,11.50
2022-12-24T14:48:13.465Z,11.50
2022-12-24T14:50:51.595Z,11.50
2022-12-24T14:53:36.854Z,11.50
2022-12-24T14:56:14.411Z,11.50
2022-12-24T14:58:42.484Z,11.40
2022-12-24T15:01:27.892Z,11.30
2022-12-24T15:04:01.695Z,11.30
2022-12-24T15:06:28.934Z,11.30
2022-12-24T15:08:55.786Z,11.20
2022-12-24T15:11:22.710Z,11.20
2022-12-24T15:13:53.184Z,11.20
2022-12-24T15:16:38.145Z,11.20
2022-12-24T15:19:06.488Z,11.20
2022-12-24T15:21:42.563Z,11.20
2022-12-24T15:24:27.646Z,11.10
2022-12-24T15:26:54.831Z,11.10
2022-12-24T15:29:23.646Z,11.10
2022-12-24T15:31:54.403Z,11.10
2022-12-24T15:34:26.287Z,11.10
2022-12-24T15:36:52.766Z,11.10
2022-12-24T15:39:19.370Z,11.00
2022-12-24T15:42:04.763Z,11.00
2022-12-24T15:44:36.110Z,10.90
2022-12-24T15:47:03.859Z,11.00
2022-12-24T15:49:32.222Z,10.90
2022-12-24T15:52:17.818Z,10.90
2022-12-24T15:54:45.823Z,10.80
2022-12-24T15:57:13.327Z,10.80
2022-12-24T15:59:40.257Z,10.70
2022-12-24T16:02:25.417Z,10.60
2022-12-24T16:04:52.071Z,10.60
2022-12-24T16:07:25.737Z,10.50
2022-12-24T16:09:52.323Z,10.50
2022-12-24T16:12:20.601Z,10.50
2022-12-24T16:14:49.031Z,10.40
2022-12-24T16:17:26.572Z,10.40
2022-12-24T16:19:55.198Z,10.40
2022-12-24T16:22:31.499Z,10.40
2022-12-24T16:25:02.664Z,10.40
2022-12-24T16:27:29.178Z,10.40
2022-12-24T16:29:55.691Z,10.40
2022-12-24T16:32:29.549Z,10.40
2022-12-24T16:34:56.096Z,10.30
2022-12-24T16:37:22.666Z,10.30
2022-12-24T16:39:49.407Z,10.20
2022-12-24T16:42:34.590Z,10.20
2022-12-24T16:45:01.144Z,10.10
2022-12-24T16:47:33.306Z,10.10
2022-12-24T16:50:01.748Z,10.10
2022-12-24T16:52:29.480Z,10.10
2022-12-24T16:54:56.473Z,10.00
2022-12-24T16:57:23.501Z,10.10
2022-12-24T16:59:51.123Z,10.00
2022-12-24T17:02:18.982Z,9.90
2022-12-24T17:04:46.214Z,9.90
2022-12-24T17:07:13.440Z,9.90
2022-12-24T17:09:40.007Z,9.90
2022-12-24T17:12:06.586Z,10.00
2022-12-24T17:14:33.063Z,10.00
2022-12-24T17:16:59.578Z,10.00
2022-12-24T17:19:26.110Z,9.90
2022-12-24T17:21:52.607Z,9.80
2022-12-24T17:24:19.170Z,9.80
2022-12-24T17:26:45.747Z,9.80
2022-12-24T17:29:12.275Z,9.80
2022-12-24T17:31:39.900Z,9.80
2022-12-24T17:34:06.557Z,9.70
2022-12-24T17:36:33.223Z,9.70
2022-12-24T17:38:59.776Z,9.70
2022-12-24T17:41:26.231Z,9.70
2022-12-24T17:43:52.841Z,9.60
2022-12-24T17:46:23.843Z,9.60
2022-12-24T17:48:50.974Z,9.60
2022-12-24T17:51:18.912Z,9.50
2022-12-24T17:53:45.522Z,9.50
2022-12-24T17:56:14.011Z,9.40
2022-12-24T17:58:42.732Z,9.40
2022-12-24T18:01:14.406Z,9.40
2022-12-24T18:03:41.825Z,9.30
2022-12-24T18:06:09.429Z,9.30
2022-12-24T18:08:36.096Z,9.30
2022-12-24T18:11:12.193Z,9.30
2022-12-24T18:13:39.118Z,9.20
2022-12-24T18:16:26.118Z,9.10
2022-12-24T18:18:53.406Z,9.00
2022-12-24T18:21:21.405Z,9.00
2022-12-24T18:23:48.486Z,9.00
2022-12-24T18:26:15.564Z,9.00
2022-12-24T18:28:42.760Z,9.00
2022-12-24T18:31:14.035Z,9.00
2022-12-24T18:33:41.011Z,9.00
2022-12-24T18:36:07.808Z,9.00
2022-12-24T18:38:34.427Z,8.90
2022-12-24T18:41:27.171Z,8.90
2022-12-24T18:43:53.761Z,8.80
2022-12-24T18:46:21.431Z,8.80
2022-12-24T18:48:48.275Z,8.80
2022-12-24T18:51:15.694Z,8.80
2022-12-24T18:53:42.385Z,8.80
2022-12-24T18:56:19.712Z,8.70
2022-12-24T18:58:46.562Z,8.80
2022-12-24T19:01:17.477Z,8.80
2022-12-24T19:03:44.333Z,8.80
2022-12-24T19:06:11.167Z,8.70
2022-12-24T19:11:24.601Z,8.70
2022-12-24T19:13:52.938Z,8.80
2022-12-24T19:16:19.914Z,8.80
2022-12-24T19:18:46.502Z,8.80
2022-12-24T19:21:15.216Z,8.80
2022-12-24T19:23:41.954Z,8.90
2022-12-24T19:26:09.825Z,8.90
2022-12-24T19:28:36.489Z,8.90
2022-12-24T19:31:04.458Z,8.90
2022-12-24T19:33:31.306Z,8.90
2022-12-24T19:35:57.883Z,8.90
2022-12-24T19:38:24.457Z,8.90
2022-12-24T19:40:51.057Z,8.90
2022-12-24T19:43:18.907Z,8.80
2022-12-24T19:45:45.511Z,8.90
2022-12-24T19:48:12.084Z,8.90
2022-12-24T19:50:38.699Z,8.90
2022-12-24T19:53:05.307Z,8.90
2022-12-24T19:55:31.937Z,8.80
2022-12-24T19:57:58.433Z,8.80
2022-12-24T20:00:24.942Z,8.70
2022-12-24T20:02:51.691Z,8.70
2022-12-24T20:05:18.471Z,8.70
2022-12-24T20:07:45.006Z,8.60
2022-12-24T20:10:11.684Z,8.50
2022-12-24T20:12:38.179Z,8.60
2022-12-24T20:15:05.067Z,8.60
2022-12-24T20:17:31.662Z,8.60
2022-12-24T20:19:58.489Z,8.60
2022-12-24T20:22:25.026Z,8.60
2022-12-24T20:24:51.632Z,8.60
2022-12-24T20:27:18.212Z,8.50
2022-12-24T20:29:44.742Z,8.50
2022-12-24T20:32:11.369Z,8.40
2022-12-24T20:34:37.961Z,8.50
2022-12-24T20:37:04.531Z,8.50
2022-12-24T20:39:31.107Z,8.50
2022-12-24T20:41:57.662Z,8.60
2022-12-24T20:44:24.198Z,8.60
2022-12-24T20:46:50.739Z,8.60
2022-12-24T20:49:17.226Z,8.60
2022-12-24T20:51:44.028Z,8.60
2022-12-24T20:54:11.126Z,8.60
2022-12-24T20:56:37.843Z,8.60
2022-12-24T20:59:04.481Z,8.60
2022-12-24T21:01:31.340Z,8.60
2022-12-24T21:04:00.039Z,8.50
2022-12-24T21:06:26.768Z,8.50
2022-12-24T21:08:53.903Z,8.60
2022-12-24T21:11:39.555Z,8.60
2022-12-24T21:14:06.212Z,8.70
2022-12-24T21:16:33.939Z,8.60
2022-12-24T21:19:00.634Z,8.70
2022-12-24T21:21:27.104Z,8.70
2022-12-24T21:23:53.967Z,8.60
2022-12-24T21:26:20.478Z,8.50
2022-12-24T21:28:47.076Z,8.60
2022-12-24T21:31:14.158Z,8.60
2022-12-24T21:33:40.884Z,8.60
2022-12-24T21:36:07.844Z,8.60
2022-12-24T21:38:34.817Z,8.60
2022-12-24T21:41:02.184Z,8.60
2022-12-24T21:43:29.734Z,8.60
2022-12-24T21:45:56.670Z,8.70
2022-12-24T21:48:42.402Z,8.70
2022-12-24T21:51:08.992Z,8.70
2022-12-24T21:53:54.083Z,8.70
2022-12-24T21:56:21.028Z,8.70
2022-12-24T21:58:50.795Z,8.70
2022-12-24T22:01:17.622Z,8.70
2022-12-24T22:03:44.314Z,8.60
2022-12-24T22:06:31.196Z,8.60
2022-12-24T22:09:16.515Z,8.60
2022-12-24T22:11:54.184Z,8.60
2022-12-24T22:14:21.345Z,8.60
2022-12-24T22:16:47.918Z,8.50
2022-12-24T22:19:14.639Z,8.50
2022-12-24T22:21:41.235Z,8.50
2022-12-24T22:24:08.073Z,8.50
2022-12-24T22:26:34.570Z,8.50
2022-12-24T22:29:03.814Z,8.50
2022-12-24T22:31:32.321Z,8.50
2022-12-24T22:33:58.992Z,8.50
2022-12-24T22:36:25.777Z,8.40
2022-12-24T22:38:52.317Z,8.30
2022-12-24T22:41:18.843Z,8.40
2022-12-24T22:43:45.324Z,8.50
2022-12-24T22:46:12.987Z,8.40
2022-12-24T22:48:40.495Z,8.50
2022-12-24T22:51:10.969Z,8.50
2022-12-24T22:53:37.956Z,8.50
2022-12-24T22:56:04.814Z,8.50
2022-12-24T22:58:31.422Z,8.60
2022-12-24T23:00:58.389Z,8.60
2022-12-24T23:03:25.413Z,8.50
2022-12-24T23:06:10.752Z,8.50
2022-12-24T23:08:37.947Z,8.50
2022-12-24T23:11:08.710Z,8.60
2022-12-24T23:13:55.860Z,8.60
2022-12-24T23:16:22.401Z,8.60
2022-12-24T23:18:49.003Z,8.60
2022-12-24T23:21:15.576Z,8.60
2022-12-24T23:23:42.081Z,8.60
2022-12-24T23:26:09.839Z,8.60
2022-12-24T23:28:36.964Z,8.60
2022-12-24T23:31:03.639Z,8.60
2022-12-24T23:33:30.809Z,8.60
2022-12-24T23:35:57.329Z,8.60
2022-12-24T23:38:23.839Z,8.70
2022-12-24T23:40:50.370Z,8.60
2022-12-24T23:43:16.956Z,8.70
2022-12-24T23:45:50.086Z,8.70
2022-12-24T23:48:16.652Z,8.70
2022-12-24T23:50:43.830Z,8.70
2022-12-24T23:53:10.534Z,8.70
2022-12-24T23:55:37.651Z,8.60
2022-12-24T23:58:05.216Z,8.60
